createdAt,value
2018-08-06T17:21:33.298Z,58.30
2018-08-06T17:24:08.755Z,56.90
2018-08-06T17:26:43.983Z,58.20
2018-08-06T17:29:22.555Z,55.80
2018-08-06T17:31:58.967Z,54.80
2018-08-06T17:34:34.331Z,54.90
2018-08-06T17:37:08.607Z,53.80
2018-08-06T17:39:44.267Z,52.50
2018-08-06T17:42:17.500Z,53.10
2018-08-06T17:44:51.966Z,54.80
2018-08-06T17:47:24.563Z,56.00
2018-08-06T17:49:57.657Z,54.70
2018-08-06T17:52:31.751Z,52.50
2018-08-06T17:55:04.680Z,52.80
2018-08-06T17:57:37.150Z,52.10
2018-08-06T18:00:11.429Z,51.90
2018-08-06T18:02:46.138Z,53.70
2018-08-06T18:05:19.638Z,55.90
2018-08-06T18:07:53.733Z,54.40
2018-08-06T18:10:29.134Z,53.70
2018-08-06T18:13:01.445Z,54.90
2018-08-06T18:15:34.155Z,57.10
2018-08-06T18:18:07.858Z,61.00
2018-08-06T18:20:41.585Z,59.50
2018-08-06T18:23:14.419Z,57.00
2018-08-06T18:25:48.189Z,57.90
2018-08-06T18:28:22.099Z,54.90
2018-08-06T18:30:55.955Z,55.30
2018-08-06T18:33:28.757Z,55.90
2018-08-06T18:36:02.444Z,55.00
2018-08-06T18:38:35.509Z,54.70
2018-08-06T18:41:09.633Z,52.50
2018-08-06T18:43:42.493Z,54.20
2018-08-06T18:46:15.239Z,54.90
2018-08-06T18:48:48.041Z,57.10
2018-08-06T18:51:22.728Z,58.80
2018-08-06T18:53:55.170Z,61.20
2018-08-06T18:56:28.594Z,60.50
2018-08-06T18:59:01.320Z,59.30
2018-08-06T19:01:34.079Z,55.80
2018-08-06T19:04:06.316Z,52.10
2018-08-06T19:06:38.741Z,52.60
2018-08-06T19:09:18.482Z,55.60
2018-08-06T19:11:50.630Z,64.10
2018-08-06T19:14:25.506Z,81.40
2018-08-06T19:16:57.621Z,91.40
2018-08-06T19:19:31.708Z,90.30
2018-08-06T19:24:41.960Z,69.60
2018-08-06T19:29:46.986Z,63.30
2018-08-06T19:32:19.084Z,62.30
2018-08-06T19:34:51.758Z,59.80
2018-08-06T19:37:28.602Z,61.20
2018-08-06T19:40:02.162Z,63.30
2018-08-06T19:42:39.892Z,64.00
2018-08-06T19:45:12.994Z,65.30
2018-08-06T19:47:45.641Z,61.90
2018-08-06T19:50:23.087Z,60.40
2018-08-06T19:52:56.979Z,58.20
2018-08-06T19:55:34.507Z,54.40
2018-08-06T19:58:07.577Z,53.30
2018-08-06T20:00:40.845Z,53.20
2018-08-06T20:03:13.537Z,53.70
2018-08-06T20:05:47.733Z,54.10
2018-08-06T20:08:20.835Z,55.10
2018-08-06T20:10:54.428Z,58.50
2018-08-06T20:13:28.388Z,57.30
2018-08-06T20:16:02.435Z,59.40
2018-08-06T20:18:36.865Z,58.80
2018-08-06T20:21:11.237Z,56.00
2018-08-06T20:23:44.830Z,57.90
2018-08-06T20:26:18.185Z,57.80
2018-08-06T20:28:51.416Z,57.70
2018-08-06T20:31:24.205Z,58.60
2018-08-06T20:33:57.043Z,59.20
2018-08-06T20:36:29.782Z,59.80
2018-08-06T20:39:02.516Z,60.70
2018-08-06T20:41:36.831Z,57.90
2018-08-06T20:44:12.099Z,56.40
2018-08-06T20:46:45.577Z,57.10
2018-08-06T20:49:18.234Z,57.20
2018-08-06T20:51:52.084Z,56.30
2018-08-06T20:54:26.896Z,57.30
2018-08-06T20:57:00.807Z,55.60
2018-08-06T20:59:34.131Z,57.40
2018-08-06T21:02:10.295Z,57.20
2018-08-06T21:04:43.080Z,59.20
2018-08-06T21:07:19.154Z,59.80
2018-08-06T21:09:51.934Z,59.90
2018-08-06T21:12:26.059Z,58.40
2018-08-06T21:14:59.258Z,59.00
2018-08-06T21:17:32.953Z,59.10
2018-08-06T21:20:09.185Z,57.90
2018-08-06T21:22:42.542Z,58.40
2018-08-06T21:25:15.574Z,58.80
2018-08-06T21:27:51.065Z,58.40
2018-08-06T21:30:24.126Z,58.50
2018-08-06T21:32:59.145Z,57.70
2018-08-06T21:35:32.236Z,57.40
2018-08-06T21:38:05.639Z,56.30
2018-08-06T21:40:38.960Z,57.30
2018-08-06T21:43:12.526Z,58.40
2018-08-06T21:45:45.647Z,58.10
2018-08-06T21:48:18.313Z,58.50
2018-08-06T21:50:50.397Z,59.10
2018-08-06T21:53:23.009Z,60.00
2018-08-06T21:55:56.523Z,63.40
2018-08-06T21:58:30.244Z,64.40
2018-08-06T22:01:02.916Z,65.00
2018-08-06T22:03:35.705Z,69.60
2018-08-06T22:06:10.319Z,73.00
2018-08-06T22:08:42.529Z,70.20
2018-08-06T22:11:15.477Z,71.80
2018-08-06T22:13:47.895Z,69.10
2018-08-06T22:16:20.609Z,66.20
2018-08-06T22:18:52.868Z,64.30
2018-08-06T22:21:25.405Z,64.50
2018-08-06T22:23:58.075Z,66.80
2018-08-06T22:26:30.655Z,66.70
2018-08-06T22:29:03.464Z,66.30
2018-08-06T22:31:35.770Z,67.20
2018-08-06T22:34:07.986Z,77.90
2018-08-06T22:36:39.941Z,84.70
2018-08-06T22:39:13.820Z,92.90
2018-08-06T22:41:46.396Z,99.90
2018-08-06T22:44:18.795Z,99.90
2018-08-06T22:46:51.482Z,99.90
2018-08-06T22:49:25.554Z,99.90
2018-08-06T22:51:57.846Z,99.90
2018-08-06T22:54:30.724Z,99.90
2018-08-06T22:57:03.405Z,99.90
2018-08-06T22:59:36.428Z,99.90
2018-08-06T23:02:08.558Z,99.90
2018-08-06T23:04:41.644Z,99.90
